Time;durP1;ratioP1;P1;durP2;ratioP2;P2;SDS_P1;SDS_P2;PMS_P1;PMS_P2;Temp;Humidity;BMP_temperature;BMP_pressure;BME280_temperature;BME280_humidity;BME280_pressure;Samples;Min_cycle;Max_cycle;Signal;HPM_P1;HPM_P2
2023/10/30 00:02:19;;;;;;;4.03;3.15;;;11.10;80.10;;;;;;5046333;28;20040;-80
2023/10/30 00:04:44;;;;;;;4.00;3.50;;;11.00;80.00;;;;;;5060351;28;20060;-80
2023/10/30 00:07:10;;;;;;;3.53;3.22;;;11.10;79.90;;;;;;5037194;28;20063;-80
2023/10/30 00:09:36;;;;;;;5.03;3.55;;;11.10;79.90;;;;;;5051321;28;20535;-80
2023/10/30 00:12:03;;;;;;;3.83;3.40;;;11.00;79.80;;;;;;5022130;28;20032;-79
2023/10/30 00:14:30;;;;;;;3.55;3.13;;;11.00;79.60;;;;;;5020919;28;20082;-78
2023/10/30 00:16:56;;;;;;;3.92;3.47;;;11.00;79.90;;;;;;5048666;28;20044;-79
2023/10/30 00:19:22;;;;;;;4.38;3.20;;;11.10;79.60;;;;;;5047771;28;20088;-78
2023/10/30 00:21:48;;;;;;;3.95;3.10;;;11.00;79.40;;;;;;5049235;28;20475;-79
2023/10/30 00:24:14;;;;;;;3.80;3.42;;;11.00;79.30;;;;;;5044097;28;20049;-79
2023/10/30 00:26:40;;;;;;;5.00;3.58;;;11.00;79.30;;;;;;5036271;28;20040;-80
2023/10/30 00:29:06;;;;;;;4.40;2.90;;;11.00;79.40;;;;;;5062013;28;20037;-83
2023/10/30 00:31:34;;;;;;;4.43;3.00;;;11.00;79.40;;;;;;5039241;28;20116;-80
2023/10/30 00:33:59;;;;;;;3.85;3.47;;;11.00;79.10;;;;;;5030501;28;20048;-81
2023/10/30 00:36:25;;;;;;;3.95;3.17;;;11.00;78.90;;;;;;5049325;28;20063;-81
2023/10/30 00:38:51;;;;;;;3.60;3.13;;;11.00;79.40;;;;;;5067916;28;20124;-80
2023/10/30 00:41:18;;;;;;;3.17;2.85;;;11.00;78.70;;;;;;5037512;28;20049;-79
2023/10/30 00:43:44;;;;;;;4.10;3.70;;;11.00;78.70;;;;;;5022013;28;20040;-81
2023/10/30 00:46:10;;;;;;;3.78;3.40;;;11.00;78.50;;;;;;5035834;28;20594;-79
2023/10/30 00:48:35;;;;;;;4.18;3.55;;;11.00;78.40;;;;;;5047427;28;20033;-79
2023/10/30 00:51:02;;;;;;;4.18;3.22;;;11.00;78.40;;;;;;5018116;28;20029;-80
2023/10/30 00:53:28;;;;;;;3.40;3.10;;;11.00;78.40;;;;;;5062978;28;20040;-81
2023/10/30 00:55:54;;;;;;;4.22;3.28;;;11.00;78.40;;;;;;5059749;28;20041;-80
2023/10/30 00:58:19;;;;;;;3.83;3.42;;;11.00;78.50;;;;;;5032342;28;20196;-79
2023/10/30 01:00:47;;;;;;;4.35;3.20;;;11.00;78.30;;;;;;5041048;28;20044;-80
2023/10/30 01:03:15;;;;;;;4.47;3.40;;;11.00;78.30;;;;;;5030571;28;20033;-80
2023/10/30 01:05:41;;;;;;;4.72;3.25;;;11.00;78.20;;;;;;5025270;28;20063;-82
2023/10/30 01:08:08;;;;;;;3.85;3.42;;;11.00;78.20;;;;;;5040283;28;20049;-81
2023/10/30 01:10:36;;;;;;;3.55;3.25;;;11.00;78.60;;;;;;5045357;28;20045;-81
2023/10/30 01:13:02;;;;;;;5.05;3.45;;;11.00;78.00;;;;;;5011486;28;20041;-81
2023/10/30 01:15:28;;;;;;;3.17;2.88;;;11.00;78.20;;;;;;5025128;28;20033;-81
2023/10/30 01:17:54;;;;;;;4.07;3.67;;;11.00;78.10;;;;;;5043257;28;20056;-81
2023/10/30 01:20:20;;;;;;;3.80;3.00;;;10.90;78.20;;;;;;5037303;28;20040;-81
2023/10/30 01:22:46;;;;;;;3.75;3.03;;;10.90;77.80;;;;;;5019264;28;20277;-81
2023/10/30 01:25:12;;;;;;;4.78;3.15;;;10.90;78.00;;;;;;5013476;28;20041;-81
2023/10/30 01:27:38;;;;;;;3.92;3.10;;;10.90;77.80;;;;;;5043449;28;20071;-81
2023/10/30 01:30:05;;;;;;;5.00;3.40;;;10.90;78.00;;;;;;5051260;28;20103;-78
2023/10/30 01:32:31;;;;;;;3.55;3.25;;;10.90;78.50;;;;;;5060835;28;20033;-75
2023/10/30 01:34:57;;;;;;;4.25;3.28;;;10.90;77.90;;;;;;5064143;28;20556;-75
2023/10/30 01:37:23;;;;;;;3.65;3.20;;;10.90;77.80;;;;;;5047956;28;20450;-75
2023/10/30 01:39:49;;;;;;;3.95;3.38;;;10.90;77.70;;;;;;5046074;28;20029;-75
2023/10/30 01:42:16;;;;;;;4.35;3.65;;;10.90;77.60;;;;;;5033493;28;20074;-75
2023/10/30 01:44:56;;;;;;;4.15;3.20;;;10.90;77.50;;;;;;5056833;28;20039;-75
2023/10/30 01:47:26;;;;;;;4.95;3.72;;;10.90;77.40;;;;;;5065602;28;20051;-77
2023/10/30 01:49:53;;;;;;;3.50;3.20;;;11.00;77.40;;;;;;5031993;28;20037;-77
2023/10/30 01:52:20;;;;;;;3.55;3.00;;;10.90;77.30;;;;;;5063909;28;20063;-76
2023/10/30 01:54:48;;;;;;;3.63;3.20;;;11.00;77.30;;;;;;5063097;28;20036;-79
2023/10/30 01:57:17;;;;;;;3.30;2.78;;;10.90;77.20;;;;;;5025305;28;20041;-77
2023/10/30 01:59:44;;;;;;;3.28;2.97;;;10.90;77.20;;;;;;5041922;28;20086;-76
2023/10/30 02:02:11;;;;;;;3.22;2.92;;;10.90;77.10;;;;;;5047169;28;20095;-77
2023/10/30 02:04:38;;;;;;;3.70;3.30;;;10.90;77.10;;;;;;5047811;28;20047;-75
2023/10/30 02:07:04;;;;;;;3.53;3.22;;;10.90;77.00;;;;;;5042658;28;20025;-76
2023/10/30 02:09:33;;;;;;;4.32;3.22;;;10.90;77.00;;;;;;5049518;28;20025;-77
2023/10/30 02:11:59;;;;;;;4.55;3.47;;;10.90;77.00;;;;;;5046597;28;20128;-76
2023/10/30 02:14:25;;;;;;;4.05;3.45;;;10.90;76.90;;;;;;5055498;28;20119;-76
2023/10/30 02:16:51;;;;;;;4.25;3.25;;;10.90;76.60;;;;;;5029014;28;20041;-76
2023/10/30 02:19:25;;;;;;;3.38;3.00;;;10.90;76.50;;;;;;5045786;28;20127;-76
2023/10/30 02:21:52;;;;;;;4.90;2.92;;;10.90;76.30;;;;;;5033097;28;20486;-76
2023/10/30 02:24:19;;;;;;;3.38;2.95;;;10.90;76.60;;;;;;5062181;28;20036;-76
2023/10/30 02:26:47;;;;;;;3.55;3.22;;;10.90;76.50;;;;;;5043117;28;20037;-75
2023/10/30 02:29:13;;;;;;;4.00;3.58;;;10.90;76.10;;;;;;5043847;28;20080;-77
2023/10/30 02:31:39;;;;;;;3.50;3.20;;;10.90;76.20;;;;;;5045100;28;20032;-76
2023/10/30 02:34:05;;;;;;;3.90;3.50;;;10.90;76.30;;;;;;5032403;28;20032;-76
2023/10/30 02:36:31;;;;;;;3.55;3.22;;;10.90;76.50;;;;;;5048297;28;20032;-76
2023/10/30 02:38:57;;;;;;;3.40;3.08;;;10.90;76.50;;;;;;5060839;28;20067;-76
2023/10/30 02:41:23;;;;;;;4.43;3.17;;;10.90;76.50;;;;;;5045843;28;20037;-76
2023/10/30 02:43:49;;;;;;;3.78;3.10;;;10.90;76.30;;;;;;5032952;28;20898;-76
2023/10/30 02:46:16;;;;;;;3.70;3.30;;;10.90;76.20;;;;;;5045563;28;20032;-76
2023/10/30 02:48:41;;;;;;;3.65;3.00;;;10.90;76.10;;;;;;5063444;28;20070;-76
2023/10/30 02:51:07;;;;;;;3.60;3.30;;;10.90;76.10;;;;;;5047004;28;20430;-76
2023/10/30 02:53:34;;;;;;;4.68;3.10;;;10.90;76.00;;;;;;5045151;28;21808;-79
2023/10/30 02:56:00;;;;;;;4.00;3.22;;;10.90;75.80;;;;;;5063881;28;20033;-75
2023/10/30 02:58:26;;;;;;;3.30;3.00;;;10.90;75.70;;;;;;5044267;28;20916;-78
2023/10/30 03:00:55;;;;;;;3.53;3.13;;;10.90;75.80;;;;;;5028087;28;20504;-78
2023/10/30 03:03:22;;;;;;;3.33;2.88;;;10.90;75.90;;;;;;5030831;28;20543;-79
2023/10/30 03:05:49;;;;;;;3.50;3.05;;;10.90;76.00;;;;;;5032174;28;20557;-84
2023/10/30 03:08:15;;;;;;;3.55;3.25;;;10.90;76.00;;;;;;5048391;28;20519;-79
2023/10/30 03:10:41;;;;;;;3.95;3.25;;;10.90;75.90;;;;;;5032184;28;20048;-81
2023/10/30 03:13:07;;;;;;;5.35;3.70;;;10.90;76.10;;;;;;5041145;28;20061;-80
2023/10/30 03:15:33;;;;;;;4.22;3.03;;;10.90;75.80;;;;;;5032895;28;20055;-81
2023/10/30 03:17:59;;;;;;;4.00;3.22;;;10.90;75.80;;;;;;5038025;28;20419;-81
2023/10/30 03:20:25;;;;;;;4.28;3.30;;;10.90;75.80;;;;;;5022123;28;20033;-80
2023/10/30 03:22:51;;;;;;;3.75;3.03;;;10.90;75.70;;;;;;5043107;28;20032;-80
2023/10/30 03:25:17;;;;;;;3.35;3.00;;;10.90;75.40;;;;;;5040686;28;20036;-79
2023/10/30 03:27:43;;;;;;;4.22;3.03;;;10.90;75.40;;;;;;5014186;28;20535;-80
2023/10/30 03:30:10;;;;;;;4.40;2.88;;;10.90;75.20;;;;;;5040383;28;20040;-80
2023/10/30 03:32:36;;;;;;;4.68;3.35;;;10.90;75.20;;;;;;5012046;28;20037;-80
2023/10/30 03:35:03;;;;;;;3.67;3.10;;;10.90;75.20;;;;;;5033833;28;20410;-80
2023/10/30 03:37:28;;;;;;;4.72;3.35;;;10.90;75.40;;;;;;5031922;28;20033;-77
2023/10/30 03:39:56;;;;;;;4.13;3.05;;;10.90;75.30;;;;;;5039967;28;20056;-78
2023/10/30 03:42:22;;;;;;;3.17;2.95;;;10.90;75.10;;;;;;5066877;28;20101;-79
2023/10/30 03:44:48;;;;;;;4.45;3.13;;;10.90;74.80;;;;;;5066585;28;20037;-78
2023/10/30 03:47:16;;;;;;;4.40;3.28;;;10.90;74.70;;;;;;5037612;28;20129;-79
2023/10/30 03:49:42;;;;;;;3.63;3.25;;;10.90;75.20;;;;;;5036477;28;20443;-79
2023/10/30 03:52:08;;;;;;;3.30;2.75;;;10.90;74.60;;;;;;5045940;28;20548;-79
2023/10/30 03:54:34;;;;;;;3.20;2.90;;;10.80;74.50;;;;;;5050111;28;20058;-79
2023/10/30 03:57:00;;;;;;;3.38;2.90;;;10.90;74.50;;;;;;5036011;28;20056;-82
2023/10/30 03:59:26;;;;;;;3.35;3.03;;;10.90;74.30;;;;;;5022229;28;20513;-80
2023/10/30 04:01:52;;;;;;;3.58;3.05;;;10.90;74.30;;;;;;5021619;28;20380;-82
2023/10/30 04:04:18;;;;;;;3.75;3.00;;;10.90;74.40;;;;;;5049295;28;20032;-78
2023/10/30 04:06:44;;;;;;;4.75;3.20;;;10.90;74.30;;;;;;5035872;28;20040;-77
2023/10/30 04:09:10;;;;;;;4.18;3.65;;;10.90;74.20;;;;;;5034052;28;20028;-78
2023/10/30 04:11:36;;;;;;;3.90;2.75;;;10.90;74.20;;;;;;5064975;28;20066;-77
2023/10/30 04:14:02;;;;;;;5.13;2.88;;;10.90;74.20;;;;;;5048405;28;20039;-77
2023/10/30 04:16:28;;;;;;;4.40;3.03;;;10.90;74.20;;;;;;5046037;28;20082;-76
2023/10/30 04:18:54;;;;;;;2.95;2.65;;;10.90;73.90;;;;;;5032220;28;20982;-78
2023/10/30 04:21:20;;;;;;;4.25;2.80;;;10.90;74.60;;;;;;5051832;28;20117;-79
2023/10/30 04:23:47;;;;;;;3.08;2.60;;;10.90;73.70;;;;;;5019841;28;20041;-79
2023/10/30 04:26:13;;;;;;;3.55;2.75;;;10.80;73.70;;;;;;5032939;28;20037;-80
2023/10/30 04:28:39;;;;;;;3.97;2.90;;;10.80;73.70;;;;;;5048241;28;20818;-81
2023/10/30 04:31:09;;;;;;;3.28;2.60;;;10.80;73.40;;;;;;5052549;28;20036;-84
2023/10/30 04:33:34;;;;;;;4.18;2.80;;;10.80;73.50;;;;;;5037374;28;20044;-81
2023/10/30 04:36:02;;;;;;;3.20;2.78;;;10.80;73.50;;;;;;5045992;28;20029;-82
2023/10/30 04:38:33;;;;;;;2.90;2.60;;;10.80;73.60;;;;;;5051726;28;20051;-83
2023/10/30 04:41:05;;;;;;;4.05;2.42;;;10.80;73.60;;;;;;5023812;28;20036;-83
2023/10/30 04:43:32;;;;;;;3.17;2.65;;;10.80;73.60;;;;;;5045873;28;20033;-83
2023/10/30 04:45:58;;;;;;;3.30;2.97;;;10.80;73.50;;;;;;5035009;28;20046;-84
2023/10/30 04:48:24;;;;;;;3.78;3.03;;;10.80;73.60;;;;;;5032393;28;20629;-84
2023/10/30 04:50:50;;;;;;;3.28;2.65;;;10.80;73.60;;;;;;5055401;28;20033;-84
2023/10/30 04:53:16;;;;;;;3.17;2.78;;;10.80;74.00;;;;;;5062072;28;20033;-84
2023/10/30 04:55:42;;;;;;;3.65;2.97;;;10.80;73.70;;;;;;5030385;28;20407;-84
2023/10/30 04:58:08;;;;;;;4.13;2.78;;;10.80;73.80;;;;;;5031281;28;20679;-83
2023/10/30 05:00:35;;;;;;;3.38;2.80;;;10.80;73.80;;;;;;5064355;28;20040;-82
2023/10/30 05:03:02;;;;;;;3.03;2.72;;;10.80;73.80;;;;;;5066516;28;20033;-83
2023/10/30 05:05:29;;;;;;;3.05;2.80;;;10.80;73.80;;;;;;5016615;28;20446;-83
2023/10/30 05:07:55;;;;;;;5.25;3.15;;;10.80;73.70;;;;;;5016116;28;20600;-82
2023/10/30 05:10:20;;;;;;;4.95;3.45;;;10.80;73.80;;;;;;5045384;28;20044;-83
2023/10/30 05:12:46;;;;;;;5.15;3.47;;;10.80;73.90;;;;;;5017700;28;20041;-82
2023/10/30 05:15:12;;;;;;;4.75;3.50;;;10.80;73.80;;;;;;5037462;28;20542;-84
2023/10/30 05:17:38;;;;;;;5.18;3.83;;;10.80;74.10;;;;;;5053272;28;20059;-82
2023/10/30 05:20:05;;;;;;;4.85;3.80;;;10.80;73.80;;;;;;5048827;28;20028;-84
2023/10/30 05:22:33;;;;;;;5.53;3.67;;;10.80;73.90;;;;;;5062306;28;20033;-81
2023/10/30 05:25:01;;;;;;;4.60;3.88;;;10.80;73.70;;;;;;5036910;28;20412;-82
2023/10/30 05:27:28;;;;;;;4.00;3.42;;;10.80;73.60;;;;;;5036468;28;20423;-82
2023/10/30 05:29:54;;;;;;;4.07;2.80;;;10.80;74.00;;;;;;5051601;28;20029;-83
2023/10/30 05:32:20;;;;;;;4.15;3.00;;;10.80;74.00;;;;;;5009157;28;20043;-82
2023/10/30 05:34:48;;;;;;;3.10;2.78;;;10.80;73.90;;;;;;5032015;28;20086;-83
2023/10/30 05:37:15;;;;;;;3.80;2.90;;;10.80;73.80;;;;;;5036489;28;20062;-80
2023/10/30 05:39:42;;;;;;;4.65;2.90;;;10.80;73.70;;;;;;5035506;28;20041;-82
2023/10/30 05:42:08;;;;;;;4.13;3.10;;;10.80;73.60;;;;;;5039581;28;20521;-83
2023/10/30 05:44:34;;;;;;;3.63;2.78;;;10.80;73.60;;;;;;5020953;28;20048;-83
2023/10/30 05:47:00;;;;;;;3.30;2.78;;;10.80;73.60;;;;;;5014503;28;20515;-81
2023/10/30 05:49:26;;;;;;;4.32;3.13;;;10.80;73.50;;;;;;5013137;28;20048;-82
2023/10/30 05:51:53;;;;;;;3.70;3.22;;;10.80;73.60;;;;;;5032311;28;20031;-82
2023/10/30 05:54:20;;;;;;;3.53;2.85;;;10.80;73.80;;;;;;5029732;28;20515;-82
2023/10/30 05:56:46;;;;;;;3.28;2.35;;;10.80;73.70;;;;;;5043243;28;20063;-83
2023/10/30 05:59:12;;;;;;;3.92;2.67;;;10.80;73.60;;;;;;5016063;28;20068;-83
2023/10/30 06:01:37;;;;;;;3.10;2.28;;;10.80;73.60;;;;;;5029406;28;20036;-83
2023/10/30 06:04:04;;;;;;;3.40;2.85;;;10.80;73.50;;;;;;5044503;28;20036;-83
2023/10/30 06:06:30;;;;;;;2.70;2.20;;;10.80;73.70;;;;;;5026223;28;20028;-83
2023/10/30 06:08:56;;;;;;;2.60;2.40;;;10.70;73.60;;;;;;5042549;28;20418;-81
2023/10/30 06:11:22;;;;;;;3.08;2.45;;;10.80;73.50;;;;;;5045293;28;20029;-82
2023/10/30 06:13:48;;;;;;;3.90;2.40;;;10.80;73.30;;;;;;5032228;28;20033;-81
2023/10/30 06:16:15;;;;;;;2.53;2.10;;;10.80;73.10;;;;;;5042699;28;20031;-81
2023/10/30 06:18:41;;;;;;;2.92;2.63;;;10.80;73.10;;;;;;5044104;28;20120;-80
2023/10/30 06:21:10;;;;;;;3.75;2.40;;;10.70;73.10;;;;;;5045366;28;20044;-84
2023/10/30 06:23:36;;;;;;;3.00;2.40;;;10.80;73.20;;;;;;5011895;28;20037;-83
2023/10/30 06:26:12;;;;;;;2.50;2.30;;;10.80;73.30;;;;;;5006947;28;20092;-83
2023/10/30 06:28:39;;;;;;;4.40;2.42;;;10.70;73.40;;;;;;5033575;28;20118;-83
2023/10/30 06:31:13;;;;;;;2.72;2.20;;;10.80;73.20;;;;;;5045497;28;20038;-82
2023/10/30 06:33:39;;;;;;;3.42;2.22;;;10.70;72.90;;;;;;5067140;28;20074;-85
2023/10/30 06:36:05;;;;;;;2.72;2.47;;;10.70;73.00;;;;;;5069785;28;20174;-88
2023/10/30 06:38:31;;;;;;;3.60;2.60;;;10.70;73.00;;;;;;5050351;28;20586;-85
2023/10/30 06:40:57;;;;;;;3.90;2.80;;;10.70;73.20;;;;;;5066744;28;20146;-85
2023/10/30 06:43:23;;;;;;;4.68;2.95;;;10.70;73.20;;;;;;5059980;28;20048;-84
2023/10/30 06:45:57;;;;;;;4.20;2.70;;;10.70;73.50;;;;;;5057143;28;20408;-87
2023/10/30 06:48:23;;;;;;;2.95;2.47;;;10.70;73.40;;;;;;5060788;28;20573;-89
2023/10/30 06:50:49;;;;;;;11.38;3.20;;;10.70;73.30;;;;;;5017038;28;20041;-86
2023/10/30 06:53:15;;;;;;;3.20;2.47;;;10.70;73.10;;;;;;5066050;28;20090;-85
2023/10/30 06:55:41;;;;;;;3.13;2.70;;;10.70;73.30;;;;;;5067680;28;20087;-86
2023/10/30 06:58:07;;;;;;;3.17;2.88;;;10.70;73.30;;;;;;5018248;28;20032;-90
2023/10/30 07:00:33;;;;;;;3.40;2.50;;;10.70;73.40;;;;;;5018337;28;20033;-83
2023/10/30 07:02:59;;;;;;;4.22;2.53;;;10.70;73.50;;;;;;5045864;28;20090;-79
2023/10/30 07:05:25;;;;;;;4.05;2.92;;;10.70;73.80;;;;;;5060033;28;20036;-79
2023/10/30 07:07:51;;;;;;;3.72;3.13;;;10.70;73.10;;;;;;5031278;28;20041;-80
2023/10/30 07:10:17;;;;;;;3.13;2.83;;;10.70;72.30;;;;;;5062046;28;20600;-79
2023/10/30 07:12:43;;;;;;;2.70;2.50;;;10.70;71.90;;;;;;5033675;28;20170;-79
2023/10/30 07:15:10;;;;;;;3.90;3.10;;;10.70;71.70;;;;;;5062476;28;20064;-79
2023/10/30 07:17:36;;;;;;;4.50;2.90;;;10.60;71.40;;;;;;5032426;28;20435;-78
2023/10/30 07:20:03;;;;;;;3.88;3.00;;;10.60;71.20;;;;;;5044991;28;20078;-78
2023/10/30 07:22:29;;;;;;;4.18;2.83;;;10.60;71.20;;;;;;5041941;28;20123;-78
2023/10/30 07:24:59;;;;;;;4.13;2.88;;;10.60;71.50;;;;;;5048325;28;20035;-78
2023/10/30 07:27:25;;;;;;;4.80;2.78;;;10.60;71.40;;;;;;5043338;28;20048;-76
2023/10/30 07:29:52;;;;;;;8.27;3.00;;;10.60;71.50;;;;;;5022938;28;20036;-77
2023/10/30 07:32:18;;;;;;;4.68;2.78;;;10.50;71.20;;;;;;5040665;28;20051;-78
2023/10/30 07:34:44;;;;;;;4.13;3.13;;;10.50;71.10;;;;;;5041194;28;20029;-78
2023/10/30 07:37:10;;;;;;;3.55;2.70;;;10.50;71.10;;;;;;5025463;28;20581;-77
2023/10/30 07:39:37;;;;;;;3.20;2.42;;;10.50;71.10;;;;;;5025811;28;20570;-78
2023/10/30 07:42:03;;;;;;;3.70;2.53;;;10.50;71.10;;;;;;5026998;28;20534;-78
2023/10/30 07:44:29;;;;;;;2.60;2.40;;;10.40;71.00;;;;;;5017694;28;20745;-78
2023/10/30 07:46:55;;;;;;;3.25;2.72;;;10.40;71.40;;;;;;5041269;28;20033;-78
2023/10/30 07:49:21;;;;;;;3.03;2.60;;;10.50;71.70;;;;;;5043260;28;20028;-78
2023/10/30 07:51:46;;;;;;;6.43;3.03;;;10.50;71.70;;;;;;5026521;28;20499;-80
2023/10/30 07:54:14;;;;;;;3.05;2.42;;;10.50;71.70;;;;;;5027972;28;20108;-82
2023/10/30 07:56:40;;;;;;;3.00;2.60;;;10.40;71.60;;;;;;5007915;28;20045;-80
2023/10/30 07:59:09;;;;;;;2.80;2.45;;;10.40;72.10;;;;;;5046815;28;20068;-81
2023/10/30 08:01:35;;;;;;;3.42;2.83;;;10.40;72.40;;;;;;5022914;28;21658;-79
2023/10/30 08:04:01;;;;;;;3.20;2.42;;;10.40;72.50;;;;;;5011563;28;20399;-81
2023/10/30 08:06:27;;;;;;;4.05;2.60;;;10.40;72.60;;;;;;5022074;28;20473;-83
2023/10/30 08:08:54;;;;;;;4.63;2.53;;;10.40;73.10;;;;;;4999632;28;20033;-80
2023/10/30 08:11:20;;;;;;;4.70;2.63;;;10.40;73.10;;;;;;5005652;28;20578;-79
2023/10/30 08:13:46;;;;;;;6.10;2.60;;;10.40;73.30;;;;;;5044344;28;20114;-80
2023/10/30 08:16:12;;;;;;;5.32;2.85;;;10.40;73.40;;;;;;5004488;28;20124;-79
2023/10/30 08:18:38;;;;;;;4.00;2.50;;;10.40;73.70;;;;;;5041750;28;20032;-80
2023/10/30 08:21:05;;;;;;;3.38;2.70;;;10.40;73.80;;;;;;5027781;28;20029;-80
2023/10/30 08:23:32;;;;;;;4.78;2.65;;;10.30;73.80;;;;;;5043070;28;20098;-81
2023/10/30 08:25:58;;;;;;;3.83;2.72;;;10.40;74.00;;;;;;5042650;28;20503;-81
2023/10/30 08:28:24;;;;;;;3.47;2.80;;;10.30;74.30;;;;;;5025801;28;20052;-81
2023/10/30 08:30:49;;;;;;;3.67;2.25;;;10.30;74.30;;;;;;5029059;28;20039;-80
2023/10/30 08:33:15;;;;;;;2.78;2.33;;;10.30;74.50;;;;;;5040706;28;20037;-80
2023/10/30 08:35:41;;;;;;;4.03;2.85;;;10.30;74.50;;;;;;5028053;28;20258;-81
2023/10/30 08:38:07;;;;;;;3.50;2.78;;;10.30;74.60;;;;;;5043948;28;20040;-82
2023/10/30 08:40:33;;;;;;;3.03;2.22;;;10.30;74.80;;;;;;5028826;28;20135;-81
2023/10/30 08:42:59;;;;;;;3.72;2.63;;;10.30;74.60;;;;;;5043942;28;20049;-80
2023/10/30 08:45:26;;;;;;;3.05;2.00;;;10.30;74.60;;;;;;5030445;28;20034;-78
2023/10/30 08:47:52;;;;;;;2.85;2.40;;;10.30;74.80;;;;;;5043758;28;20395;-79
2023/10/30 08:50:18;;;;;;;3.10;2.42;;;10.30;75.00;;;;;;5045125;28;20032;-79
2023/10/30 08:52:43;;;;;;;2.60;2.40;;;10.30;75.10;;;;;;5042616;28;20034;-78
2023/10/30 08:55:09;;;;;;;4.18;2.13;;;10.30;75.10;;;;;;5028458;28;20140;-79
2023/10/30 08:57:35;;;;;;;2.70;2.35;;;10.30;75.30;;;;;;5030581;28;20080;-78
2023/10/30 09:00:06;;;;;;;4.43;2.35;;;10.30;75.40;;;;;;5000295;28;20451;-79
2023/10/30 09:02:32;;;;;;;3.58;2.33;;;10.30;75.40;;;;;;5042889;28;20063;-77
2023/10/30 09:04:58;;;;;;;3.25;2.30;;;10.30;75.30;;;;;;5009447;28;20681;-77
2023/10/30 09:07:24;;;;;;;2.67;2.38;;;10.30;75.40;;;;;;5044392;28;20120;-82
2023/10/30 09:09:50;;;;;;;3.38;2.13;;;10.30;75.80;;;;;;5014389;28;20137;-82
2023/10/30 09:12:17;;;;;;;2.30;2.10;;;10.30;75.90;;;;;;5012615;28;20072;-81
2023/10/30 09:14:43;;;;;;;3.20;2.50;;;10.30;76.00;;;;;;5044643;28;20029;-83
2023/10/30 09:17:09;;;;;;;2.60;2.22;;;10.30;75.70;;;;;;5002807;28;20070;-81
2023/10/30 09:19:36;;;;;;;4.20;2.17;;;10.30;75.70;;;;;;5041690;28;20053;-78
2023/10/30 09:22:03;;;;;;;3.47;2.20;;;10.30;75.60;;;;;;5042134;28;20079;-81
2023/10/30 09:24:29;;;;;;;2.92;2.45;;;10.20;75.60;;;;;;5008504;28;20018;-83
2023/10/30 09:26:55;;;;;;;4.10;2.30;;;10.30;75.50;;;;;;5014332;28;20033;-79
2023/10/30 09:29:21;;;;;;;2.40;2.08;;;10.20;75.60;;;;;;5028304;28;20039;-79
2023/10/30 09:31:49;;;;;;;2.45;2.22;;;10.20;75.50;;;;;;5022501;28;20143;-83
2023/10/30 09:34:16;;;;;;;3.03;2.25;;;10.20;75.60;;;;;;5009651;28;20396;-82
2023/10/30 09:36:42;;;;;;;3.00;2.40;;;10.20;75.80;;;;;;5041018;28;20123;-80
2023/10/30 09:39:08;;;;;;;4.18;2.50;;;10.20;75.70;;;;;;5008363;28;20512;-85
2023/10/30 09:41:45;;;;;;;2.45;2.00;;;10.20;75.60;;;;;;5032139;28;20045;-87
2023/10/30 09:44:11;;;;;;;3.17;2.40;;;10.20;75.60;;;;;;5018774;28;20488;-87
2023/10/30 09:46:39;;;;;;;2.42;2.22;;;10.20;75.50;;;;;;5014508;28;20052;-88
2023/10/30 09:49:06;;;;;;;2.63;2.42;;;10.20;75.40;;;;;;5037038;28;20116;-88
2023/10/30 09:51:33;;;;;;;3.60;2.53;;;10.20;75.50;;;;;;5033812;28;20483;-90
2023/10/30 09:54:00;;;;;;;2.80;2.33;;;10.20;75.50;;;;;;5013470;28;20041;-88
2023/10/30 09:56:28;;;;;;;2.38;2.17;;;10.20;75.70;;;;;;5033250;28;20533;-89
2023/10/30 09:58:54;;;;;;;3.03;2.22;;;10.20;75.40;;;;;;5026501;28;20034;-90
2023/10/30 10:01:20;;;;;;;2.63;2.42;;;10.20;75.20;;;;;;5008086;28;20470;-90
2023/10/30 10:03:47;;;;;;;4.03;2.50;;;10.20;75.30;;;;;;5036648;28;20032;-89
2023/10/30 10:06:13;;;;;;;3.20;2.40;;;10.20;75.50;;;;;;5029292;28;20029;-89
2023/10/30 10:08:42;;;;;;;3.40;2.55;;;10.20;75.60;;;;;;5032920;28;20125;-82
2023/10/30 10:11:08;;;;;;;4.38;3.03;;;10.20;75.70;;;;;;5052604;28;20029;-89
2023/10/30 10:13:37;;;;;;;5.65;3.17;;;10.20;75.60;;;;;;5034387;28;20044;-88
2023/10/30 10:16:04;;;;;;;4.03;3.28;;;10.10;75.40;;;;;;5039386;28;21100;-88
2023/10/30 10:18:32;;;;;;;5.00;3.28;;;10.10;75.10;;;;;;5042140;28;20377;-89
2023/10/30 10:21:03;;;;;;;4.25;3.03;;;10.20;75.00;;;;;;5041317;28;20040;-90
2023/10/30 10:23:33;;;;;;;4.93;3.10;;;10.10;75.40;;;;;;5016925;28;20040;-88
2023/10/30 10:26:15;;;;;;;4.40;2.95;;;10.20;75.70;;;;;;5000695;28;20036;-86
2023/10/30 10:28:45;;;;;;;5.75;3.28;;;10.20;75.70;;;;;;5018506;28;20071;-90
2023/10/30 10:31:12;;;;;;;4.32;3.25;;;10.20;75.90;;;;;;5024925;28;20076;-89
2023/10/30 10:33:38;;;;;;;5.60;3.63;;;10.10;75.90;;;;;;5034651;28;20041;-89
2023/10/30 10:36:06;;;;;;;6.10;4.10;;;10.20;76.00;;;;;;5039350;28;20064;-89
2023/10/30 10:38:32;;;;;;;4.78;4.00;;;10.10;76.20;;;;;;5015421;28;20057;-90
2023/10/30 10:40:59;;;;;;;4.93;3.95;;;10.20;76.30;;;;;;5027398;28;20056;-88
2023/10/30 10:43:27;;;;;;;4.80;3.80;;;10.20;76.30;;;;;;5026196;28;20037;-88
2023/10/30 10:45:55;;;;;;;6.35;3.63;;;10.20;76.80;;;;;;5010905;28;20055;-90
2023/10/30 10:48:24;;;;;;;5.25;3.50;;;10.20;76.80;;;;;;5026437;28;20042;-87
2023/10/30 10:50:51;;;;;;;5.13;3.53;;;10.20;76.80;;;;;;5021303;28;20045;-87
2023/10/30 10:53:23;;;;;;;4.13;3.38;;;10.20;76.70;;;;;;5020702;28;20037;-82
2023/10/30 10:55:50;;;;;;;4.25;3.33;;;10.20;76.80;;;;;;5024288;28;20030;-90
2023/10/30 10:58:19;;;;;;;4.15;3.00;;;10.20;76.80;;;;;;5002893;28;20034;-79
2023/10/30 11:00:46;;;;;;;4.60;3.35;;;10.20;77.10;;;;;;5005693;28;20075;-78
2023/10/30 11:03:13;;;;;;;6.25;3.40;;;10.20;77.20;;;;;;5017770;28;20029;-78
2023/10/30 11:05:40;;;;;;;3.97;3.13;;;10.20;76.90;;;;;;5012908;28;20045;-85
2023/10/30 11:08:08;;;;;;;5.70;3.80;;;10.20;76.90;;;;;;5005572;28;20136;-88
2023/10/30 11:10:49;;;;;;;5.80;3.72;;;10.20;77.00;;;;;;4995756;28;20057;-83
2023/10/30 11:13:15;;;;;;;4.93;3.58;;;10.10;76.90;;;;;;5020975;28;20387;-77
2023/10/30 11:15:49;;;;;;;6.18;3.72;;;10.20;77.10;;;;;;5014883;28;20076;-82
2023/10/30 11:18:21;;;;;;;6.43;3.75;;;10.20;77.10;;;;;;5021366;28;20063;-84
2023/10/30 11:20:53;;;;;;;4.78;3.63;;;10.20;77.10;;;;;;5017037;28;20079;-82
2023/10/30 11:23:44;;;;;;;6.28;2.83;;;10.20;77.10;;;;;;5019761;28;20104;-79
2023/10/30 11:26:41;;;;;;;6.80;3.08;;;10.30;84.20;;;;;;5018588;28;20034;-77
2023/10/30 11:29:15;;;;;;;3.72;2.83;;;10.40;86.10;;;;;;5000306;28;20053;-80
2023/10/30 11:32:02;;;;;;;3.40;3.10;;;10.40;86.00;;;;;;5024444;28;20037;-78
2023/10/30 11:34:31;;;;;;;6.20;3.20;;;10.40;84.60;;;;;;5020311;28;20041;-77
2023/10/30 11:37:07;;;;;;;5.53;2.88;;;10.40;83.60;;;;;;5003305;28;20507;-77
2023/10/30 11:39:36;;;;;;;3.88;3.08;;;10.40;82.70;;;;;;5025492;28;20116;-77
2023/10/30 11:42:04;;;;;;;4.40;3.13;;;10.40;82.40;;;;;;5023649;28;20076;-77
2023/10/30 11:44:31;;;;;;;5.03;3.55;;;10.40;82.90;;;;;;5023305;28;20030;-77
2023/10/30 11:46:58;;;;;;;7.55;3.75;;;10.40;81.90;;;;;;5021466;28;20038;-76
2023/10/30 11:49:31;;;;;;;9.25;4.35;;;10.40;81.90;;;;;;5037011;28;20030;-77
2023/10/30 11:51:57;;;;;;;5.90;3.85;;;10.40;82.10;;;;;;4993934;28;20125;-77
2023/10/30 11:54:29;;;;;;;6.68;3.78;;;10.50;82.10;;;;;;5021606;28;20034;-78
2023/10/30 11:56:55;;;;;;;4.72;3.83;;;10.50;82.20;;;;;;5023062;28;20029;-79
2023/10/30 11:59:21;;;;;;;6.20;3.85;;;10.50;82.10;;;;;;4991421;28;20034;-78
2023/10/30 12:01:50;;;;;;;6.20;4.22;;;10.50;82.20;;;;;;5025707;28;20048;-76
2023/10/30 12:04:21;;;;;;;6.80;4.40;;;10.50;82.20;;;;;;5028667;28;20041;-84
2023/10/30 12:06:48;;;;;;;6.47;3.78;;;10.50;82.50;;;;;;5018609;28;20131;-81
2023/10/30 12:09:15;;;;;;;5.43;3.88;;;10.50;82.50;;;;;;5029394;28;20033;-83
2023/10/30 12:11:41;;;;;;;5.60;4.03;;;10.50;82.80;;;;;;5045694;28;20071;-81
2023/10/30 12:14:07;;;;;;;6.38;3.95;;;10.50;83.00;;;;;;5019001;28;20098;-82
2023/10/30 12:16:36;;;;;;;5.43;4.22;;;10.60;83.30;;;;;;5035706;28;20042;-86
2023/10/30 12:19:03;;;;;;;6.03;3.60;;;10.60;83.20;;;;;;5045611;28;20060;-78
2023/10/30 12:21:33;;;;;;;6.35;3.28;;;10.70;89.50;;;;;;5007549;28;20507;-80
2023/10/30 12:23:59;;;;;;;5.78;2.75;;;10.80;89.10;;;;;;5028217;28;20121;-88
2023/10/30 12:26:33;;;;;;;5.95;3.30;;;11.00;90.10;;;;;;4998788;28;20149;-88
2023/10/30 12:29:00;;;;;;;5.97;3.72;;;11.00;89.10;;;;;;5015435;28;20042;-91
2023/10/30 12:31:26;;;;;;;7.90;4.35;;;11.10;87.80;;;;;;5015129;28;20103;-90
2023/10/30 12:34:22;;;;;;;7.25;4.10;;;11.10;86.40;;;;;;5045457;28;20017;-89
2023/10/30 12:36:48;;;;;;;7.70;4.53;;;11.10;85.40;;;;;;5034585;28;20107;-80
2023/10/30 12:39:18;;;;;;;10.05;4.18;;;11.00;84.80;;;;;;5031231;28;20033;-81
2023/10/30 12:41:47;;;;;;;7.90;5.07;;;11.00;84.40;;;;;;5028494;28;20037;-79
2023/10/30 12:44:18;;;;;;;6.85;5.00;;;11.00;84.00;;;;;;5025989;28;20033;-76
2023/10/30 12:46:45;;;;;;;7.47;5.07;;;11.00;84.00;;;;;;5000534;28;20050;-77
2023/10/30 12:49:11;;;;;;;8.18;5.38;;;11.00;84.20;;;;;;5020836;28;20026;-76